Portada
METAR-TAF:

METAR-TAF

Aeroports :

Shillong, Índia

latitud: 25-42-13N, longitud: 091-58-43E, altitud: 887 m

Observació

L'informe es va fer fa 33 minuts, a les 03:00 UTC
Vent calma
Temperatura 9°C
Humitat 93%
Pressió 1020 hPa
Visibilitat: 0800 m
Escasses núvols a una alçada de 800 ft
boira

METAR: VEBI 120300Z 00000KT 0800 FG FEW008 09/08 Q1020

Hora: 09:03 (03:33 UTC)


TAF: manca

Observacions i pronòstics meteorològics de més de 4000 aeroports (METAR i TAF).

Les estacions disponibles són els punts grocs i vermells al mapa.

Posi el ratolí al punt desitjat per veure el nom de l'estació.

Feu clic per veure les observacions i els pronòstics meteorològics.

Per canviar el mapa: feu clic els botons verds amb una creu de color negre per apropar; al botó verd amb un guió per allunyar la imatge; o en les fletxes verdes per a mapes adjacents.


METAR-TAF: